createdAt,value
2022-08-05T00:00:54.897Z,95101.94
2022-08-05T00:03:21.286Z,95097.06
2022-08-05T00:06:05.047Z,95103.22
2022-08-05T00:08:36.144Z,95096.63
2022-08-05T00:11:02.753Z,95091.31
2022-08-05T00:13:38.305Z,95090.72
2022-08-05T00:16:06.050Z,95087.88
2022-08-05T00:18:34.882Z,95089.72
2022-08-05T00:21:01.234Z,95085.44
2022-08-05T00:23:44.522Z,95085.25
2022-08-05T00:26:12.863Z,95086.97
2022-08-05T00:28:39.214Z,95084.66
2022-08-05T00:31:07.681Z,95099.63
2022-08-05T00:34:55.130Z,95096.19
2022-08-05T00:37:11.667Z,95083.81
2022-08-05T00:39:06.886Z,95094.03
2022-08-05T00:41:46.767Z,95098.78
2022-08-05T00:44:18.794Z,95101.81
2022-08-05T00:46:47.284Z,95106.00
2022-08-05T00:49:20.395Z,95106.84
2022-08-05T00:51:51.194Z,95098.66
2022-08-05T00:54:18.620Z,95097.66
2022-08-05T00:56:51.340Z,95101.28
2022-08-05T00:59:18.241Z,95094.09
2022-08-05T01:01:49.022Z,95087.88
2022-08-05T01:04:16.110Z,95096.91
2022-08-05T01:06:48.740Z,95093.53
2022-08-05T01:09:15.386Z,95093.03
2022-08-05T01:11:46.182Z,95085.13
2022-08-05T01:14:15.517Z,95089.00
2022-08-05T01:16:44.255Z,95080.34
2022-08-05T01:19:10.792Z,95079.38
2022-08-05T01:21:40.595Z,95082.69
2022-08-05T01:24:13.160Z,95080.13
2022-08-05T01:26:40.873Z,95075.84
2022-08-05T01:29:07.222Z,95084.13
2022-08-05T01:31:34.529Z,95073.63
2022-08-05T01:34:11.406Z,95076.94
2022-08-05T01:36:42.145Z,95077.78
2022-08-05T01:39:13.245Z,95073.75
2022-08-05T01:41:39.718Z,95068.56
2022-08-05T01:44:11.229Z,95074.28
2022-08-05T01:46:42.314Z,95073.84
2022-08-05T01:49:23.918Z,95079.00
2022-08-05T01:51:51.873Z,95070.84
2022-08-05T01:54:18.379Z,95073.44
2022-08-05T01:58:10.467Z,95075.81
2022-08-05T01:59:37.294Z,95075.28
2022-08-05T02:02:03.692Z,95069.91
2022-08-05T02:04:30.193Z,95066.06
2022-08-05T02:06:56.564Z,95070.25
2022-08-05T02:09:24.396Z,95075.97
2022-08-05T02:11:52.568Z,95075.81
2022-08-05T02:14:19.182Z,95073.31
2022-08-05T02:16:45.548Z,95073.31
2022-08-05T02:19:11.908Z,95067.41
2022-08-05T02:21:46.937Z,95064.66
2022-08-05T02:24:17.965Z,95068.75
2022-08-05T02:26:54.689Z,95067.44
2022-08-05T02:29:26.037Z,95073.50
2022-08-05T02:32:07.773Z,95073.78
2022-08-05T02:34:34.131Z,95071.72
2022-08-05T02:37:00.779Z,95072.63
2022-08-05T02:39:30.867Z,95073.91
2022-08-05T02:42:01.458Z,95074.66
2022-08-05T02:44:28.033Z,95079.78
2022-08-05T02:47:00.090Z,95073.19
2022-08-05T02:49:27.360Z,95074.63
2022-08-05T02:52:03.522Z,95071.31
2022-08-05T02:54:34.871Z,95075.47
2022-08-05T02:57:03.759Z,95079.63
2022-08-05T02:59:47.817Z,95079.78
2022-08-05T03:02:17.832Z,95080.66
2022-08-05T03:04:44.177Z,95071.91
2022-08-05T03:07:24.735Z,95080.50
2022-08-05T03:09:56.867Z,95075.19
2022-08-05T03:12:23.229Z,95067.41
2022-08-05T03:14:49.621Z,95066.69
2022-08-05T03:17:16.333Z,95069.00
2022-08-05T03:19:42.692Z,95060.97
2022-08-05T03:22:16.388Z,95072.31
2022-08-05T03:24:44.161Z,95061.63
2022-08-05T03:27:13.516Z,95064.06
2022-08-05T03:29:45.301Z,95065.97
2022-08-05T03:32:30.851Z,95070.28
2022-08-05T03:34:57.750Z,95067.88
2022-08-05T03:37:24.269Z,95066.25
2022-08-05T03:39:59.074Z,95064.66
2022-08-05T03:42:27.279Z,95068.69
2022-08-05T03:44:55.594Z,95064.53
2022-08-05T03:47:23.674Z,95068.59
2022-08-05T03:49:52.113Z,95072.44
2022-08-05T03:52:38.610Z,95068.19
2022-08-05T03:56:05.199Z,95067.16
2022-08-05T03:57:51.496Z,95063.53
2022-08-05T04:00:17.841Z,95069.78
2022-08-05T04:02:57.672Z,95065.13
2022-08-05T04:05:25.486Z,95062.72
2022-08-05T04:07:57.847Z,95067.88
2022-08-05T04:10:25.389Z,95062.97
2022-08-05T04:12:54.367Z,95064.66
2022-08-05T04:15:21.179Z,95070.03
2022-08-05T04:17:57.324Z,95072.88
2022-08-05T04:20:26.378Z,95065.59
2022-08-05T04:22:52.766Z,95064.16
2022-08-05T04:25:19.113Z,95067.44
2022-08-05T04:27:57.318Z,95066.59
2022-08-05T04:30:24.615Z,95071.06
2022-08-05T04:32:52.986Z,95077.16
2022-08-05T04:35:19.763Z,95065.00
2022-08-05T04:38:02.513Z,95067.78
2022-08-05T04:40:32.749Z,95076.22
2022-08-05T04:42:59.126Z,95078.66
2022-08-05T04:45:47.845Z,95075.28
2022-08-05T04:48:18.460Z,95082.97
2022-08-05T04:50:53.522Z,95086.84
2022-08-05T04:53:33.685Z,95089.59
2022-08-05T04:56:33.050Z,95094.94
2022-08-05T04:58:48.247Z,95090.84
2022-08-05T05:01:14.672Z,95094.47
2022-08-05T05:04:00.212Z,95100.34
2022-08-05T05:06:39.418Z,95099.22
2022-08-05T05:09:14.265Z,95101.63
2022-08-05T05:11:52.895Z,95100.09
2022-08-05T05:14:27.762Z,95105.41
2022-08-05T05:16:58.514Z,95098.72
2022-08-05T05:19:27.616Z,95095.19
2022-08-05T05:22:03.545Z,95096.66
2022-08-05T05:24:56.702Z,95106.09
2022-08-05T05:27:24.794Z,95108.13
2022-08-05T05:30:08.488Z,95104.84
2022-08-05T05:32:54.833Z,95109.31
2022-08-05T05:35:21.182Z,95112.50
2022-08-05T05:38:01.467Z,95105.16
2022-08-05T05:40:28.611Z,95114.78
2022-08-05T05:42:55.025Z,95116.47
2022-08-05T05:45:22.690Z,95119.94
2022-08-05T05:48:06.280Z,95118.63
2022-08-05T05:50:34.349Z,95121.94
2022-08-05T05:53:21.340Z,95125.94
2022-08-05T05:55:51.709Z,95126.53
2022-08-05T05:58:32.079Z,95130.16
2022-08-05T06:01:02.075Z,95138.91
2022-08-05T06:03:53.665Z,95136.63
2022-08-05T06:06:27.767Z,95132.88
2022-08-05T06:08:57.700Z,95131.28
2022-08-05T06:11:24.070Z,95132.88
2022-08-05T06:13:54.214Z,95133.44
2022-08-05T06:16:29.921Z,95139.06
2022-08-05T06:19:00.739Z,95132.00
2022-08-05T06:21:31.376Z,95142.25
2022-08-05T06:24:03.666Z,95140.16
2022-08-05T06:26:33.838Z,95152.72
2022-08-05T06:29:03.362Z,95151.59
2022-08-05T06:31:33.588Z,95145.81
2022-08-05T06:34:07.117Z,95145.53
2022-08-05T06:36:53.522Z,95149.69
2022-08-05T06:39:21.900Z,95150.88
2022-08-05T06:41:50.987Z,95151.28
2022-08-05T06:44:18.547Z,95152.09
2022-08-05T06:46:50.839Z,95154.88
2022-08-05T06:49:17.602Z,95150.22
2022-08-05T06:51:45.362Z,95157.78
2022-08-05T06:54:11.979Z,95159.31
2022-08-05T06:56:54.656Z,95158.91
2022-08-05T06:59:30.969Z,95161.63
2022-08-05T07:02:05.299Z,95162.75
2022-08-05T07:04:31.648Z,95160.19
2022-08-05T07:06:59.375Z,95166.53
2022-08-05T07:09:25.718Z,95161.88
2022-08-05T07:12:00.509Z,95161.09
2022-08-05T07:14:29.522Z,95163.16
2022-08-05T07:18:00.755Z,95172.81
2022-08-05T07:20:31.421Z,95171.69
2022-08-05T07:22:30.312Z,95170.25
2022-08-05T07:24:56.827Z,95172.25
2022-08-05T07:27:27.318Z,95170.25
2022-08-05T07:30:23.976Z,95174.41
2022-08-05T07:32:40.487Z,95172.00
2022-08-05T07:36:05.057Z,95181.34
2022-08-05T07:37:54.076Z,95169.75
2022-08-05T07:40:31.852Z,95181.47
2022-08-05T07:42:59.541Z,95182.13
2022-08-05T07:45:57.214Z,95177.31
2022-08-05T07:49:02.944Z,95183.31
2022-08-05T07:51:03.871Z,95185.91
2022-08-05T07:53:36.620Z,95184.38
2022-08-05T07:56:06.134Z,95178.44
2022-08-05T07:58:54.938Z,95184.78
2022-08-05T08:01:25.535Z,95176.72
2022-08-05T08:03:56.346Z,95180.59
2022-08-05T08:06:23.210Z,95183.66
2022-08-05T08:08:54.554Z,95180.03
2022-08-05T08:11:27.807Z,95189.53
2022-08-05T08:14:07.226Z,95178.59
2022-08-05T08:16:50.937Z,95180.59
2022-08-05T08:20:10.160Z,95180.03
2022-08-05T08:22:04.207Z,95188.78
2022-08-05T08:24:51.119Z,95183.91
2022-08-05T08:27:16.903Z,95190.97
2022-08-05T08:30:04.078Z,95185.91
2022-08-05T08:32:29.602Z,95196.91
2022-08-05T08:34:56.126Z,95198.38
2022-08-05T08:37:27.933Z,95186.94
2022-08-05T08:39:54.517Z,95197.88
2022-08-05T08:42:46.665Z,95198.19
2022-08-05T08:45:23.884Z,95195.00
2022-08-05T08:48:12.835Z,95209.78
2022-08-05T08:51:03.563Z,95210.50
2022-08-05T08:53:25.551Z,95197.78
2022-08-05T08:56:03.837Z,95201.72
2022-08-05T08:58:37.644Z,95208.25
2022-08-05T09:01:16.968Z,95211.69
2022-08-05T09:03:45.375Z,95210.81
2022-08-05T09:06:15.781Z,95218.13
2022-08-05T09:08:44.938Z,95203.66
2022-08-05T09:11:13.766Z,95206.53
2022-08-05T09:14:09.502Z,95205.50
2022-08-05T09:16:26.797Z,95203.34
2022-08-05T09:18:53.395Z,95203.50
2022-08-05T09:22:30.917Z,95201.47
2022-08-05T09:24:08.327Z,95195.13
2022-08-05T09:26:36.636Z,95197.88
2022-08-05T09:29:03.094Z,95190.56
2022-08-05T09:32:41.098Z,95190.47
2022-08-05T09:34:15.772Z,95196.44
2022-08-05T09:36:45.692Z,95201.78
2022-08-05T09:39:22.349Z,95199.53
2022-08-05T09:41:52.729Z,95195.78
2022-08-05T09:44:22.679Z,95196.09
2022-08-05T09:46:51.822Z,95192.75
2022-08-05T09:49:24.370Z,95195.38
2022-08-05T09:52:10.697Z,95196.56
2022-08-05T09:54:37.542Z,95195.53
2022-08-05T09:57:06.583Z,95195.59
2022-08-05T09:59:49.917Z,95198.72
2022-08-05T10:02:16.397Z,95186.81
2022-08-05T10:04:46.871Z,95187.75
2022-08-05T10:07:20.803Z,95191.03
2022-08-05T10:10:15.285Z,95177.00
2022-08-05T10:12:49.635Z,95177.13
2022-08-05T10:15:17.321Z,95171.59
2022-08-05T10:17:56.640Z,95168.91
2022-08-05T10:20:24.057Z,95167.97
2022-08-05T10:22:51.544Z,95157.94
2022-08-05T10:25:17.943Z,95162.22
2022-08-05T10:28:09.255Z,95155.75
2022-08-05T10:31:20.455Z,95160.25
2022-08-05T10:33:18.540Z,95158.25
2022-08-05T10:35:48.552Z,95156.13
2022-08-05T10:38:26.254Z,95154.78
2022-08-05T10:40:52.728Z,95160.81
2022-08-05T10:43:24.608Z,95163.94
2022-08-05T10:46:06.661Z,95146.75
2022-08-05T10:48:39.609Z,95148.59
2022-08-05T10:51:22.458Z,95152.88
2022-08-05T10:53:49.340Z,95144.94
2022-08-05T10:56:25.379Z,95144.06
2022-08-05T10:58:51.998Z,95148.22
2022-08-05T11:01:28.520Z,95141.63
2022-08-05T11:04:04.681Z,95143.84
2022-08-05T11:06:32.594Z,95144.69
2022-08-05T11:08:58.947Z,95140.81
2022-08-05T11:11:25.298Z,95142.00
2022-08-05T11:14:08.381Z,95134.69
2022-08-05T11:16:56.116Z,95136.13
2022-08-05T11:20:16.603Z,95130.97
2022-08-05T11:22:07.641Z,95139.03
2022-08-05T11:24:35.908Z,95134.28
2022-08-05T11:27:05.181Z,95130.28
2022-08-05T11:29:31.555Z,95121.38
2022-08-05T11:32:01.259Z,95122.72
2022-08-05T11:34:27.686Z,95125.56
2022-08-05T11:36:54.936Z,95117.16
2022-08-05T11:39:23.205Z,95115.59
2022-08-05T11:42:01.477Z,95116.53
2022-08-05T11:44:52.810Z,95108.97
2022-08-05T11:47:21.967Z,95115.91
2022-08-05T11:49:50.932Z,95107.41
2022-08-05T11:52:17.746Z,95107.19
2022-08-05T11:54:54.819Z,95114.56
2022-08-05T11:57:25.931Z,95109.72
2022-08-05T11:59:53.523Z,95105.09
2022-08-05T12:02:29.652Z,95106.31
2022-08-05T12:04:59.378Z,95100.97
2022-08-05T12:08:03.467Z,95102.91
2022-08-05T12:10:12.691Z,95090.84
2022-08-05T12:12:39.557Z,95094.25
2022-08-05T12:15:35.748Z,95086.66
2022-08-05T12:18:10.831Z,95085.81
2022-08-05T12:20:38.658Z,95091.09
2022-08-05T12:23:05.236Z,95080.97
2022-08-05T12:25:31.592Z,95077.66
2022-08-05T12:27:57.939Z,95086.81
2022-08-05T12:30:29.111Z,95077.44
2022-08-05T12:32:58.745Z,95072.16
2022-08-05T12:35:39.580Z,95075.59
2022-08-05T12:38:06.355Z,95078.31
2022-08-05T12:40:32.709Z,95075.59
2022-08-05T12:42:59.059Z,95078.84
2022-08-05T12:45:42.665Z,95063.44
2022-08-05T12:48:26.885Z,95060.78
2022-08-05T12:50:58.078Z,95059.00
2022-08-05T12:53:37.135Z,95053.69
2022-08-05T12:56:05.169Z,95049.53
2022-08-05T12:58:54.055Z,95044.78
2022-08-05T13:02:03.555Z,95042.59
2022-08-05T13:04:12.436Z,95032.72
2022-08-05T13:06:38.788Z,95030.06
2022-08-05T13:09:28.297Z,95026.66
2022-08-05T13:12:02.675Z,95017.88
2022-08-05T13:14:36.224Z,95019.19
2022-08-05T13:17:03.095Z,95013.31
2022-08-05T13:19:51.785Z,95019.75
2022-08-05T13:22:28.074Z,95018.16
2022-08-05T13:24:58.071Z,95006.28
2022-08-05T13:27:36.322Z,95018.03
2022-08-05T13:30:34.868Z,95003.09
2022-08-05T13:32:50.788Z,95006.41
2022-08-05T13:35:22.457Z,95002.91
2022-08-05T13:38:05.953Z,95009.81
2022-08-05T13:40:50.008Z,95001.50
2022-08-05T13:43:21.842Z,94991.84
2022-08-05T13:45:48.700Z,94993.19
2022-08-05T13:48:58.458Z,94992.91
2022-08-05T13:51:03.587Z,94999.06
2022-08-05T13:53:31.099Z,94994.88
2022-08-05T13:56:01.963Z,94999.34
2022-08-05T13:58:30.711Z,95008.88
2022-08-05T14:00:57.498Z,95005.22
2022-08-05T14:03:24.163Z,95002.53
2022-08-05T14:06:25.168Z,95005.97
2022-08-05T14:08:37.002Z,95004.97
2022-08-05T14:11:21.001Z,95001.66
2022-08-05T14:13:48.564Z,94992.47
2022-08-05T14:16:21.496Z,94996.63
2022-08-05T14:18:47.858Z,95003.97
2022-08-05T14:22:09.901Z,94994.47
2022-08-05T14:24:02.243Z,94991.16
2022-08-05T14:26:35.570Z,94987.28
2022-08-05T14:29:16.063Z,94988.84
2022-08-05T14:32:02.601Z,94987.44
2022-08-05T14:34:29.527Z,94991.84
2022-08-05T14:37:01.893Z,95002.06
2022-08-05T14:39:28.269Z,94998.34
2022-08-05T14:42:19.581Z,94999.78
2022-08-05T14:44:41.908Z,95000.09
2022-08-05T14:47:08.880Z,94997.88
2022-08-05T14:49:56.233Z,94998.59
2022-08-05T14:52:42.943Z,94995.47
2022-08-05T14:55:07.975Z,94987.81
2022-08-05T14:57:54.618Z,94997.88
2022-08-05T15:00:29.369Z,94993.41
2022-08-05T15:02:56.007Z,94989.00
2022-08-05T15:05:22.493Z,94993.41
2022-08-05T15:08:09.052Z,94986.00
2022-08-05T15:10:39.585Z,94987.13
2022-08-05T15:13:06.174Z,94991.91
2022-08-05T15:15:54.522Z,94989.19
2022-08-05T15:18:22.687Z,94989.03
2022-08-05T15:20:49.464Z,94988.78
2022-08-05T15:23:15.833Z,94991.06
2022-08-05T15:25:52.375Z,95004.84
2022-08-05T15:28:23.043Z,95000.69
2022-08-05T15:30:53.837Z,95005.16
2022-08-05T15:33:56.561Z,94999.94
2022-08-05T15:36:11.557Z,95000.38
2022-08-05T15:38:44.556Z,94997.22
2022-08-05T15:41:23.060Z,95011.03
2022-08-05T15:43:50.729Z,95005.56
2022-08-05T15:46:17.323Z,95001.53
2022-08-05T15:48:51.999Z,95005.56
2022-08-05T15:51:21.125Z,94996.06
2022-08-05T15:53:54.297Z,95003.59
2022-08-05T15:56:20.645Z,95000.75
2022-08-05T15:58:47.247Z,95009.06
2022-08-05T16:01:16.241Z,94989.69
2022-08-05T16:03:43.859Z,94995.00
2022-08-05T16:06:11.323Z,94997.81
2022-08-05T16:08:38.065Z,94997.88
2022-08-05T16:11:04.451Z,95006.59
2022-08-05T16:13:34.493Z,95005.84
2022-08-05T16:16:01.489Z,95011.88
2022-08-05T16:18:29.786Z,95012.75
2022-08-05T16:20:56.145Z,95025.44
2022-08-05T16:23:22.497Z,95032.31
2022-08-05T16:25:49.202Z,95035.06
2022-08-05T16:28:22.199Z,95033.66
2022-08-05T16:30:50.659Z,95040.03
2022-08-05T16:33:17.017Z,95041.31
2022-08-05T16:35:44.713Z,95049.81
2022-08-05T16:38:23.859Z,95046.03
2022-08-05T16:40:55.226Z,95043.34
2022-08-05T16:43:23.459Z,95050.94
2022-08-05T16:46:06.703Z,95033.19
2022-08-05T16:48:36.662Z,95047.78
2022-08-05T16:51:03.927Z,95056.50
2022-08-05T16:54:05.155Z,95053.47
2022-08-05T16:56:23.294Z,95064.56
2022-08-05T16:58:49.725Z,95086.00
2022-08-05T17:01:16.195Z,95095.22
2022-08-05T17:03:45.300Z,95115.31
2022-08-05T17:06:11.658Z,95132.53
2022-08-05T17:08:53.178Z,95146.66
2022-08-05T17:11:20.478Z,95138.00
2022-08-05T17:13:50.367Z,95144.66
2022-08-05T17:16:33.277Z,95137.75
2022-08-05T17:19:00.126Z,95145.06
2022-08-05T17:21:32.471Z,95163.88
2022-08-05T17:24:05.964Z,95165.09
2022-08-05T17:26:41.011Z,95182.38
2022-08-05T17:29:10.177Z,95175.22
2022-08-05T17:31:41.518Z,95197.25
2022-08-05T17:34:30.199Z,95189.75
2022-08-05T17:36:59.027Z,95221.28
2022-08-05T17:39:34.269Z,95230.38
2022-08-05T17:42:17.541Z,95242.66
2022-08-05T17:44:50.328Z,95254.44
2022-08-05T17:47:17.622Z,95244.03
2022-08-05T17:49:52.150Z,95238.16
2022-08-05T17:52:30.775Z,95246.53
2022-08-05T17:54:57.567Z,95250.22
2022-08-05T17:57:24.584Z,95271.31
2022-08-05T18:00:04.872Z,95280.78
2022-08-05T18:02:32.034Z,95278.38
2022-08-05T18:04:58.558Z,95277.56
2022-08-05T18:07:25.270Z,95275.88
2022-08-05T18:10:08.749Z,95287.44
2022-08-05T18:12:36.908Z,95283.84
2022-08-05T18:15:03.775Z,95287.06
2022-08-05T18:18:00.710Z,95286.88
2022-08-05T18:20:17.483Z,95285.53
2022-08-05T18:22:53.918Z,95297.34
2022-08-05T18:25:21.164Z,95304.41
2022-08-05T18:27:52.409Z,95311.97
2022-08-05T18:30:19.233Z,95325.16
2022-08-05T18:32:53.410Z,95331.47
2022-08-05T18:35:28.402Z,95319.94
2022-08-05T18:38:12.721Z,95325.66
2022-08-05T18:41:55.147Z,95332.41
2022-08-05T18:43:31.650Z,95330.47
2022-08-05T18:46:04.524Z,95330.16
2022-08-05T18:48:33.298Z,95339.06
2022-08-05T18:51:01.807Z,95342.28
2022-08-05T18:53:50.157Z,95348.81
2022-08-05T18:56:16.995Z,95356.91
2022-08-05T18:58:48.189Z,95352.69
2022-08-05T19:01:18.140Z,95364.53
2022-08-05T19:03:55.542Z,95360.34
2022-08-05T19:06:34.145Z,95376.16
2022-08-05T19:09:09.317Z,95377.88
2022-08-05T19:11:59.582Z,95376.28
2022-08-05T19:14:37.919Z,95393.09
2022-08-05T19:17:08.381Z,95398.72
2022-08-05T19:19:34.824Z,95396.88
2022-08-05T19:22:01.546Z,95404.34
2022-08-05T19:24:34.050Z,95410.53
2022-08-05T19:27:03.937Z,95418.34
2022-08-05T19:29:35.925Z,95429.94
2022-08-05T19:32:02.612Z,95441.94
2022-08-05T19:34:30.843Z,95432.69
2022-08-05T19:36:57.185Z,95435.03
2022-08-05T19:39:23.566Z,95439.94
2022-08-05T19:42:06.632Z,95442.56
2022-08-05T19:44:38.722Z,95442.06
2022-08-05T19:47:11.183Z,95451.28
2022-08-05T19:49:42.570Z,95445.13
2022-08-05T19:52:30.611Z,95438.44
2022-08-05T19:54:57.711Z,95434.81
2022-08-05T19:57:46.526Z,95440.59
2022-08-05T20:00:13.219Z,95439.72
2022-08-05T20:02:39.586Z,95450.91
2022-08-05T20:05:09.744Z,95443.69
2022-08-05T20:07:48.135Z,95454.94
2022-08-05T20:10:14.845Z,95455.94
2022-08-05T20:12:45.934Z,95456.22
2022-08-05T20:15:12.994Z,95470.84
2022-08-05T20:17:39.978Z,95467.94
2022-08-05T20:20:09.364Z,95476.00
2022-08-05T20:22:37.369Z,95484.72
2022-08-05T20:25:07.887Z,95469.84
2022-08-05T20:27:41.861Z,95473.47
2022-08-05T20:30:08.515Z,95469.22
2022-08-05T20:32:34.869Z,95474.66
2022-08-05T20:35:02.531Z,95478.28
2022-08-05T20:38:06.015Z,95483.00
2022-08-05T20:40:15.208Z,95490.72
2022-08-05T20:42:44.376Z,95489.38
2022-08-05T20:45:10.734Z,95493.63
2022-08-05T20:47:40.037Z,95497.06
2022-08-05T20:50:07.535Z,95502.16
2022-08-05T20:52:34.013Z,95518.72
2022-08-05T20:55:54.351Z,95516.31
2022-08-05T20:57:46.919Z,95523.69
2022-08-05T21:00:40.523Z,95523.34
2022-08-05T21:03:01.781Z,95529.38
2022-08-05T21:05:38.128Z,95549.22
2022-08-05T21:08:14.488Z,95553.06
2022-08-05T21:10:40.842Z,95558.53
2022-08-05T21:13:26.129Z,95561.09
2022-08-05T21:16:01.902Z,95553.63
2022-08-05T21:18:30.092Z,95560.00
2022-08-05T21:20:57.093Z,95558.47
2022-08-05T21:23:23.456Z,95561.44
2022-08-05T21:25:50.463Z,95559.59
2022-08-05T21:28:18.466Z,95554.28
2022-08-05T21:30:45.108Z,95560.81
2022-08-05T21:33:22.261Z,95562.16
2022-08-05T21:35:58.423Z,95565.78
2022-08-05T21:38:24.984Z,95575.81
2022-08-05T21:40:51.333Z,95561.59
2022-08-05T21:43:24.793Z,95553.22
2022-08-05T21:45:57.605Z,95553.78
2022-08-05T21:48:26.893Z,95538.13
2022-08-05T21:50:54.307Z,95537.00
2022-08-05T21:53:20.961Z,95533.53
2022-08-05T21:56:05.841Z,95538.63
2022-08-05T21:58:33.654Z,95542.47
2022-08-05T22:01:00.127Z,95533.00
2022-08-05T22:03:48.957Z,95528.06
2022-08-05T22:06:13.263Z,95518.59
2022-08-05T22:08:42.334Z,95531.56
2022-08-05T22:11:09.192Z,95530.03
2022-08-05T22:14:18.424Z,95537.88
2022-08-05T22:16:41.491Z,95539.91
2022-08-05T22:19:56.181Z,95540.06
2022-08-05T22:21:55.566Z,95533.31
2022-08-05T22:24:40.730Z,95537.88
2022-08-05T22:27:11.047Z,95537.75
2022-08-05T22:29:43.717Z,95538.25
2022-08-05T22:32:12.330Z,95533.88
2022-08-05T22:34:43.970Z,95527.31
2022-08-05T22:37:12.107Z,95524.88
2022-08-05T22:39:38.604Z,95521.06
2022-08-05T22:42:12.485Z,95521.97
2022-08-05T22:44:47.019Z,95520.88
2022-08-05T22:47:29.170Z,95527.84
2022-08-05T22:50:19.999Z,95526.75
2022-08-05T22:52:42.851Z,95523.34
2022-08-05T22:55:09.347Z,95519.88
2022-08-05T22:57:46.047Z,95526.03
2022-08-05T23:00:12.401Z,95531.38
2022-08-05T23:02:46.936Z,95531.81
2022-08-05T23:05:13.850Z,95525.81
2022-08-05T23:07:48.309Z,95534.63
2022-08-05T23:10:15.983Z,95531.09
2022-08-05T23:12:46.145Z,95527.63
2022-08-05T23:15:12.586Z,95517.28
2022-08-05T23:18:00.849Z,95512.53
2022-08-05T23:20:25.319Z,95519.44
2022-08-05T23:22:55.894Z,95517.09
2022-08-05T23:25:52.195Z,95507.63
2022-08-05T23:28:08.912Z,95521.00
2022-08-05T23:30:35.276Z,95522.78
2022-08-05T23:33:07.095Z,95517.72
2022-08-05T23:35:45.375Z,95507.50
2022-08-05T23:38:12.066Z,95501.72
2022-08-05T23:40:38.628Z,95488.13
2022-08-05T23:43:11.407Z,95483.78
2022-08-05T23:45:52.259Z,95495.53
2022-08-05T23:48:18.618Z,95493.44
2022-08-05T23:50:46.116Z,95492.38
2022-08-05T23:53:22.663Z,95494.63
2022-08-05T23:55:49.552Z,95490.88
2022-08-05T23:58:31.630Z,95499.16
